sensor_id;sensor_type;location;lat;lon;timestamp;pressure;altitude;pressure_sealevel;temperature;humidity
71772;BME280;59606;52.138;5.424;2023-02-20T00:00:44;102658.69;;;5.16;100.00
71772;BME280;59606;52.138;5.424;2023-02-20T00:03:13;102662.97;;;5.19;100.00
71772;BME280;59606;52.138;5.424;2023-02-20T00:05:40;102656.06;;;5.19;100.00
71772;BME280;59606;52.138;5.424;2023-02-20T00:08:07;102650.91;;;5.19;100.00
71772;BME280;59606;52.138;5.424;2023-02-20T00:10:33;102654.38;;;5.20;100.00
71772;BME280;59606;52.138;5.424;2023-02-20T00:13:00;102656.06;;;5.19;100.00
71772;BME280;59606;52.138;5.424;2023-02-20T00:15:26;102650.03;;;5.19;100.00
71772;BME280;59606;52.138;5.424;2023-02-20T00:17:53;102647.47;;;5.19;100.00
71772;BME280;59606;52.138;5.424;2023-02-20T00:20:22;102656.94;;;5.20;100.00
71772;BME280;59606;52.138;5.424;2023-02-20T00:22:49;102658.66;;;5.21;100.00
71772;BME280;59606;52.138;5.424;2023-02-20T00:25:18;102639.69;;;5.22;100.00
71772;BME280;59606;52.138;5.424;2023-02-20T00:27:44;102628.50;;;5.22;100.00
71772;BME280;59606;52.138;5.424;2023-02-20T00:30:16;102622.50;;;5.21;100.00
71772;BME280;59606;52.138;5.424;2023-02-20T00:32:45;102625.94;;;5.22;100.00
71772;BME280;59606;52.138;5.424;2023-02-20T00:35:15;102624.19;;;5.22;100.00
71772;BME280;59606;52.138;5.424;2023-02-20T00:37:42;102612.13;;;5.23;100.00
71772;BME280;59606;52.138;5.424;2023-02-20T00:40:09;102604.38;;;5.23;100.00
71772;BME280;59606;52.138;5.424;2023-02-20T00:42:36;102604.38;;;5.23;100.00
71772;BME280;59606;52.138;5.424;2023-02-20T00:45:03;102601.81;;;5.23;100.00
71772;BME280;59606;52.138;5.424;2023-02-20T00:47:30;102606.97;;;5.24;100.00
71772;BME280;59606;52.138;5.424;2023-02-20T00:49:57;102602.69;;;5.23;100.00
71772;BME280;59606;52.138;5.424;2023-02-20T00:52:24;102592.34;;;5.22;100.00
71772;BME280;59606;52.138;5.424;2023-02-20T00:54:50;102587.19;;;5.20;100.00
71772;BME280;59606;52.138;5.424;2023-02-20T00:57:17;102588.03;;;5.19;100.00
71772;BME280;59606;52.138;5.424;2023-02-20T00:59:43;102586.34;;;5.18;100.00
71772;BME280;59606;52.138;5.424;2023-02-20T01:02:10;102581.19;;;5.16;100.00
71772;BME280;59606;52.138;5.424;2023-02-20T01:04:36;102572.56;;;5.14;100.00
71772;BME280;59606;52.138;5.424;2023-02-20T01:07:03;102577.72;;;5.14;100.00
71772;BME280;59606;52.138;5.424;2023-02-20T01:09:29;102568.28;;;5.13;100.00
71772;BME280;59606;52.138;5.424;2023-02-20T01:11:55;102554.53;;;5.10;100.00
71772;BME280;59606;52.138;5.424;2023-02-20T01:14:22;102548.47;;;5.09;100.00
71772;BME280;59606;52.138;5.424;2023-02-20T01:16:51;102526.09;;;5.08;100.00
71772;BME280;59606;52.138;5.424;2023-02-20T01:19:20;102511.47;;;5.07;100.00
71772;BME280;59606;52.138;5.424;2023-02-20T01:21:46;102523.53;;;5.07;100.00
71772;BME280;59606;52.138;5.424;2023-02-20T01:24:17;102523.53;;;5.05;100.00
71772;BME280;59606;52.138;5.424;2023-02-20T01:26:45;102516.63;;;5.03;100.00
71772;BME280;59606;52.138;5.424;2023-02-20T01:29:11;102515.81;;;5.01;100.00
71772;BME280;59606;52.138;5.424;2023-02-20T01:31:38;102520.13;;;5.00;100.00
71772;BME280;59606;52.138;5.424;2023-02-20T01:34:05;102516.66;;;4.98;100.00
71772;BME280;59606;52.138;5.424;2023-02-20T01:36:31;102517.53;;;4.97;100.00
71772;BME280;59606;52.138;5.424;2023-02-20T01:38:58;102529.59;;;4.96;100.00
71772;BME280;59606;52.138;5.424;2023-02-20T01:41:24;102521.00;;;4.94;100.00
71772;BME280;59606;52.138;5.424;2023-02-20T01:43:51;102520.13;;;4.95;100.00
71772;BME280;59606;52.138;5.424;2023-02-20T01:49:07;102518.41;;;4.94;100.00
71772;BME280;59606;52.138;5.424;2023-02-20T01:51:44;102511.50;;;4.95;100.00
71772;BME280;59606;52.138;5.424;2023-02-20T01:54:14;102513.25;;;4.94;100.00
71772;BME280;59606;52.138;5.424;2023-02-20T01:56:43;102508.94;;;4.95;100.00
71772;BME280;59606;52.138;5.424;2023-02-20T01:59:11;102511.53;;;4.96;100.00
71772;BME280;59606;52.138;5.424;2023-02-20T02:01:38;102511.47;;;5.00;100.00
71772;BME280;59606;52.138;5.424;2023-02-20T02:04:07;102514.06;;;5.01;100.00
71772;BME280;59606;52.138;5.424;2023-02-20T02:06:39;102496.84;;;5.03;100.00
71772;BME280;59606;52.138;5.424;2023-02-20T02:09:25;102498.56;;;5.07;100.00
71772;BME280;59606;52.138;5.424;2023-02-20T02:11:54;102491.63;;;5.12;100.00
71772;BME280;59606;52.138;5.424;2023-02-20T02:14:21;102477.84;;;5.15;100.00
71772;BME280;59606;52.138;5.424;2023-02-20T02:19:30;102474.34;;;5.19;100.00
71772;BME280;59606;52.138;5.424;2023-02-20T02:28:09;102471.72;;;5.31;100.00
71772;BME280;59606;52.138;5.424;2023-02-20T02:36:32;102461.34;;;5.37;100.00
71772;BME280;59606;52.138;5.424;2023-02-20T02:39:24;102445.81;;;5.39;100.00
71772;BME280;59606;52.138;5.424;2023-02-20T02:41:59;102441.47;;;5.42;100.00
71772;BME280;59606;52.138;5.424;2023-02-20T02:44:43;102444.03;;;5.47;100.00
71772;BME280;59606;52.138;5.424;2023-02-20T02:47:19;102443.13;;;5.51;100.00
71772;BME280;59606;52.138;5.424;2023-02-20T02:49:51;102447.44;;;5.54;100.00
71772;BME280;59606;52.138;5.424;2023-02-20T02:52:21;102444.81;;;5.55;100.00
71772;BME280;59606;52.138;5.424;2023-02-20T02:55:05;102440.47;;;5.59;100.00
71772;BME280;59606;52.138;5.424;2023-02-20T02:57:32;102443.91;;;5.62;100.00
71772;BME280;59606;52.138;5.424;2023-02-20T03:00:08;102447.31;;;5.66;100.00
71772;BME280;59606;52.138;5.424;2023-02-20T03:05:41;102441.19;;;5.76;100.00
71772;BME280;59606;52.138;5.424;2023-02-20T03:10:49;102442.91;;;5.80;100.00
71772;BME280;59606;52.138;5.424;2023-02-20T03:13:18;102444.56;;;5.84;100.00
71772;BME280;59606;52.138;5.424;2023-02-20T03:15:50;102451.47;;;5.87;100.00
71772;BME280;59606;52.138;5.424;2023-02-20T03:18:33;102449.66;;;5.92;100.00
71772;BME280;59606;52.138;5.424;2023-02-20T03:21:08;102441.06;;;5.95;100.00
71772;BME280;59606;52.138;5.424;2023-02-20T03:23:40;102434.13;;;5.97;100.00
71772;BME280;59606;52.138;5.424;2023-02-20T03:26:10;102438.41;;;6.01;100.00
71772;BME280;59606;52.138;5.424;2023-02-20T03:29:09;102428.94;;;6.01;100.00
71772;BME280;59606;52.138;5.424;2023-02-20T03:31:46;102422.00;;;6.02;100.00
71772;BME280;59606;52.138;5.424;2023-02-20T03:34:21;102422.84;;;6.05;100.00
71772;BME280;59606;52.138;5.424;2023-02-20T03:37:14;102426.25;;;6.09;100.00
71772;BME280;59606;52.138;5.424;2023-02-20T03:40:04;102425.38;;;6.10;100.00
71772;BME280;59606;52.138;5.424;2023-02-20T03:42:53;102421.06;;;6.10;100.00
71772;BME280;59606;52.138;5.424;2023-02-20T03:45:41;102417.59;;;6.11;100.00
71772;BME280;59606;52.138;5.424;2023-02-20T03:51:05;102415.84;;;6.13;100.00
71772;BME280;59606;52.138;5.424;2023-02-20T03:53:32;102416.69;;;6.16;100.00
71772;BME280;59606;52.138;5.424;2023-02-20T03:56:02;102407.19;;;6.18;100.00
71772;BME280;59606;52.138;5.424;2023-02-20T03:58:32;102409.75;;;6.21;100.00
71772;BME280;59606;52.138;5.424;2023-02-20T04:01:02;102404.53;;;6.22;100.00
71772;BME280;59606;52.138;5.424;2023-02-20T04:03:32;102406.25;;;6.23;100.00
71772;BME280;59606;52.138;5.424;2023-02-20T04:06:01;102391.56;;;6.25;100.00
71772;BME280;59606;52.138;5.424;2023-02-20T04:08:48;102388.94;;;6.27;100.00
71772;BME280;59606;52.138;5.424;2023-02-20T04:11:23;102403.63;;;6.28;100.00
71772;BME280;59606;52.138;5.424;2023-02-20T04:13:53;102400.13;;;6.30;100.00
71772;BME280;59606;52.138;5.424;2023-02-20T04:16:21;102402.66;;;6.33;100.00
71772;BME280;59606;52.138;5.424;2023-02-20T04:18:48;102399.19;;;6.36;100.00
71772;BME280;59606;52.138;5.424;2023-02-20T04:21:23;102399.19;;;6.37;100.00
71772;BME280;59606;52.138;5.424;2023-02-20T04:24:03;102401.75;;;6.39;100.00
71772;BME280;59606;52.138;5.424;2023-02-20T04:26:33;102407.78;;;6.40;100.00
71772;BME280;59606;52.138;5.424;2023-02-20T04:29:00;102405.19;;;6.40;100.00
71772;BME280;59606;52.138;5.424;2023-02-20T04:31:27;102389.66;;;6.41;100.00
71772;BME280;59606;52.138;5.424;2023-02-20T04:33:53;102405.16;;;6.44;100.00
71772;BME280;59606;52.138;5.424;2023-02-20T04:36:20;102401.69;;;6.45;100.00
71772;BME280;59606;52.138;5.424;2023-02-20T04:38:47;102391.28;;;6.47;100.00
71772;BME280;59606;52.138;5.424;2023-02-20T04:41:14;102389.59;;;6.47;100.00
71772;BME280;59606;52.138;5.424;2023-02-20T04:43:41;102391.25;;;6.50;100.00
71772;BME280;59606;52.138;5.424;2023-02-20T04:46:07;102387.81;;;6.49;100.00
71772;BME280;59606;52.138;5.424;2023-02-20T04:48:33;102401.59;;;6.51;100.00
71772;BME280;59606;52.138;5.424;2023-02-20T04:51:00;102398.13;;;6.52;100.00
71772;BME280;59606;52.138;5.424;2023-02-20T04:53:28;102398.13;;;6.54;100.00
71772;BME280;59606;52.138;5.424;2023-02-20T04:55:54;102398.94;;;6.56;100.00
71772;BME280;59606;52.138;5.424;2023-02-20T04:58:21;102399.81;;;6.56;100.00
71772;BME280;59606;52.138;5.424;2023-02-20T05:00:47;102386.81;;;6.59;100.00
71772;BME280;59606;52.138;5.424;2023-02-20T05:03:14;102398.03;;;6.60;100.00
71772;BME280;59606;52.138;5.424;2023-02-20T05:05:40;102391.09;;;6.62;100.00
71772;BME280;59606;52.138;5.424;2023-02-20T05:08:07;102391.09;;;6.62;100.00
71772;BME280;59606;52.138;5.424;2023-02-20T05:10:34;102383.34;;;6.62;100.00
71772;BME280;59606;52.138;5.424;2023-02-20T05:13:01;102391.97;;;6.63;100.00
71772;BME280;59606;52.138;5.424;2023-02-20T05:15:29;102394.53;;;6.64;100.00
71772;BME280;59606;52.138;5.424;2023-02-20T05:17:56;102390.22;;;6.65;100.00
71772;BME280;59606;52.138;5.424;2023-02-20T05:20:23;102385.03;;;6.65;100.00
71772;BME280;59606;52.138;5.424;2023-02-20T05:23:09;102388.44;;;6.67;100.00
71772;BME280;59606;52.138;5.424;2023-02-20T05:25:36;102379.81;;;6.68;100.00
71772;BME280;59606;52.138;5.424;2023-02-20T05:28:02;102382.38;;;6.69;100.00
71772;BME280;59606;52.138;5.424;2023-02-20T05:30:29;102387.56;;;6.69;100.00
71772;BME280;59606;52.138;5.424;2023-02-20T05:32:55;102399.66;;;6.69;100.00
71772;BME280;59606;52.138;5.424;2023-02-20T05:35:22;102373.72;;;6.72;100.00
71772;BME280;59606;52.138;5.424;2023-02-20T05:37:48;102388.38;;;6.73;100.00
71772;BME280;59606;52.138;5.424;2023-02-20T05:40:15;102375.38;;;6.76;100.00
71772;BME280;59606;52.138;5.424;2023-02-20T05:42:41;102377.97;;;6.77;100.00
71772;BME280;59606;52.138;5.424;2023-02-20T05:45:08;102379.66;;;6.77;100.00
71772;BME280;59606;52.138;5.424;2023-02-20T05:47:37;102375.28;;;6.80;100.00
71772;BME280;59606;52.138;5.424;2023-02-20T05:50:04;102374.44;;;6.81;100.00
71772;BME280;59606;52.138;5.424;2023-02-20T05:52:31;102373.50;;;6.84;100.00
71772;BME280;59606;52.138;5.424;2023-02-20T05:54:58;102382.13;;;6.86;100.00
71772;BME280;59606;52.138;5.424;2023-02-20T05:57:24;102374.31;;;6.89;100.00
71772;BME280;59606;52.138;5.424;2023-02-20T05:59:51;102372.56;;;6.90;100.00
71772;BME280;59606;52.138;5.424;2023-02-20T06:02:17;102372.63;;;6.88;100.00
71772;BME280;59606;52.138;5.424;2023-02-20T06:04:43;102365.69;;;6.89;100.00
71772;BME280;59606;52.138;5.424;2023-02-20T06:07:10;102362.22;;;6.91;100.00
71772;BME280;59606;52.138;5.424;2023-02-20T06:09:41;102363.91;;;6.92;100.00
71772;BME280;59606;52.138;5.424;2023-02-20T06:12:08;102361.31;;;6.91;100.00
71772;BME280;59606;52.138;5.424;2023-02-20T06:14:34;102362.22;;;6.91;100.00
71772;BME280;59606;52.138;5.424;2023-02-20T06:17:00;102364.81;;;6.91;100.00
71772;BME280;59606;52.138;5.424;2023-02-20T06:19:27;102361.31;;;6.92;100.00
71772;BME280;59606;52.138;5.424;2023-02-20T06:21:54;102362.13;;;6.96;100.00
71772;BME280;59606;52.138;5.424;2023-02-20T06:24:20;102374.22;;;6.95;100.00
71772;BME280;59606;52.138;5.424;2023-02-20T06:26:47;102376.81;;;6.95;100.00
71772;BME280;59606;52.138;5.424;2023-02-20T06:29:15;102372.47;;;6.97;100.00
71772;BME280;59606;52.138;5.424;2023-02-20T06:31:42;102366.41;;;6.98;100.00
71772;BME280;59606;52.138;5.424;2023-02-20T06:34:09;102375.88;;;6.99;100.00
71772;BME280;59606;52.138;5.424;2023-02-20T06:36:38;102362.03;;;7.00;100.00
71772;BME280;59606;52.138;5.424;2023-02-20T06:39:07;102355.16;;;7.01;100.00
71772;BME280;59606;52.138;5.424;2023-02-20T06:41:34;102374.16;;;7.01;100.00
71772;BME280;59606;52.138;5.424;2023-02-20T06:44:01;102368.06;;;7.02;100.00
71772;BME280;59606;52.138;5.424;2023-02-20T06:46:27;102363.78;;;7.01;100.00
71772;BME280;59606;52.138;5.424;2023-02-20T06:48:57;102371.53;;;7.03;100.00
71772;BME280;59606;52.138;5.424;2023-02-20T06:51:27;102364.59;;;7.05;100.00
71772;BME280;59606;52.138;5.424;2023-02-20T06:53:54;102368.88;;;7.06;100.00
71772;BME280;59606;52.138;5.424;2023-02-20T06:56:24;102360.22;;;7.07;100.00
71772;BME280;59606;52.138;5.424;2023-02-20T06:58:51;102372.31;;;7.08;100.00
71772;BME280;59606;52.138;5.424;2023-02-20T07:01:20;102376.63;;;7.07;100.00
71772;BME280;59606;52.138;5.424;2023-02-20T07:03:48;102369.69;;;7.09;100.00
71772;BME280;59606;52.138;5.424;2023-02-20T07:06:16;102372.22;;;7.13;100.00
71772;BME280;59606;52.138;5.424;2023-02-20T07:08:42;102375.66;;;7.15;100.00
71772;BME280;59606;52.138;5.424;2023-02-20T07:11:09;102374.78;;;7.16;100.00
71772;BME280;59606;52.138;5.424;2023-02-20T07:13:37;102391.19;;;7.16;100.00
71772;BME280;59606;52.138;5.424;2023-02-20T07:16:04;102394.63;;;7.17;100.00
71772;BME280;59606;52.138;5.424;2023-02-20T07:18:30;102385.09;;;7.19;100.00
71772;BME280;59606;52.138;5.424;2023-02-20T07:20:57;102380.72;;;7.21;100.00
71772;BME280;59606;52.138;5.424;2023-02-20T07:23:23;102376.44;;;7.20;100.00
71772;BME280;59606;52.138;5.424;2023-02-20T07:25:50;102378.97;;;7.23;100.00
71772;BME280;59606;52.138;5.424;2023-02-20T07:28:18;102375.50;;;7.24;100.00
71772;BME280;59606;52.138;5.424;2023-02-20T07:30:46;102388.47;;;7.24;100.00
71772;BME280;59606;52.138;5.424;2023-02-20T07:33:15;102386.72;;;7.26;100.00
71772;BME280;59606;52.138;5.424;2023-02-20T07:35:42;102383.22;;;7.27;100.00
71772;BME280;59606;52.138;5.424;2023-02-20T07:38:09;102384.97;;;7.28;100.00
71772;BME280;59606;52.138;5.424;2023-02-20T07:40:36;102385.78;;;7.30;100.00
71772;BME280;59606;52.138;5.424;2023-02-20T07:43:05;102386.63;;;7.32;100.00
71772;BME280;59606;52.138;5.424;2023-02-20T07:45:31;102386.56;;;7.33;100.00
71772;BME280;59606;52.138;5.424;2023-02-20T07:47:58;102389.16;;;7.35;100.00
71772;BME280;59606;52.138;5.424;2023-02-20T07:50:24;102389.97;;;7.37;100.00
71772;BME280;59606;52.138;5.424;2023-02-20T07:52:51;102389.97;;;7.39;100.00
71772;BME280;59606;52.138;5.424;2023-02-20T07:55:18;102389.06;;;7.40;100.00
71772;BME280;59606;52.138;5.424;2023-02-20T07:57:46;102386.44;;;7.43;100.00
71772;BME280;59606;52.138;5.424;2023-02-20T08:00:15;102371.72;;;7.43;100.00
71772;BME280;59606;52.138;5.424;2023-02-20T08:02:42;102379.44;;;7.48;100.00
71772;BME280;59606;52.138;5.424;2023-02-20T08:05:09;102372.47;;;7.50;100.00
71772;BME280;59606;52.138;5.424;2023-02-20T08:07:36;102375.03;;;7.53;100.00
71772;BME280;59606;52.138;5.424;2023-02-20T08:10:04;102371.53;;;7.55;100.00
71772;BME280;59606;52.138;5.424;2023-02-20T08:12:31;102367.13;;;7.59;100.00
71772;BME280;59606;52.138;5.424;2023-02-20T08:14:57;102371.41;;;7.62;100.00
71772;BME280;59606;52.138;5.424;2023-02-20T08:17:23;102366.19;;;7.65;100.00
71772;BME280;59606;52.138;5.424;2023-02-20T08:19:59;102363.50;;;7.68;100.00
71772;BME280;59606;52.138;5.424;2023-02-20T08:22:26;102375.56;;;7.72;100.00
71772;BME280;59606;52.138;5.424;2023-02-20T08:25:06;102369.44;;;7.76;100.00
71772;BME280;59606;52.138;5.424;2023-02-20T08:27:33;102375.44;;;7.78;100.00
71772;BME280;59606;52.138;5.424;2023-02-20T08:30:06;102365.88;;;7.80;100.00
71772;BME280;59606;52.138;5.424;2023-02-20T08:32:33;102374.50;;;7.82;100.00
71772;BME280;59606;52.138;5.424;2023-02-20T08:35:00;102369.31;;;7.82;100.00
71772;BME280;59606;52.138;5.424;2023-02-20T08:37:26;102366.66;;;7.85;100.00
71772;BME280;59606;52.138;5.424;2023-02-20T08:39:52;102366.56;;;7.90;100.00
71772;BME280;59606;52.138;5.424;2023-02-20T08:42:19;102370.84;;;7.92;100.00
71772;BME280;59606;52.138;5.424;2023-02-20T08:44:45;102357.03;;;7.92;100.00
71772;BME280;59606;52.138;5.424;2023-02-20T08:47:12;102371.66;;;7.94;100.00
71772;BME280;59606;52.138;5.424;2023-02-20T08:49:38;102365.63;;;7.94;100.00
71772;BME280;59606;52.138;5.424;2023-02-20T08:52:05;102367.34;;;7.95;100.00
71772;BME280;59606;52.138;5.424;2023-02-20T08:54:31;102378.53;;;7.97;100.00
71772;BME280;59606;52.138;5.424;2023-02-20T08:56:58;102378.53;;;7.97;100.00
71772;BME280;59606;52.138;5.424;2023-02-20T08:59:24;102373.34;;;7.98;100.00
71772;BME280;59606;52.138;5.424;2023-02-20T09:01:51;102362.97;;;7.98;100.00
71772;BME280;59606;52.138;5.424;2023-02-20T09:04:17;102371.59;;;7.99;100.00
71772;BME280;59606;52.138;5.424;2023-02-20T09:06:46;102379.38;;;7.99;100.00
71772;BME280;59606;52.138;5.424;2023-02-20T09:09:12;102371.59;;;7.99;100.00
71772;BME280;59606;52.138;5.424;2023-02-20T09:11:39;102366.41;;;7.99;100.00
71772;BME280;59606;52.138;5.424;2023-02-20T09:14:05;102366.41;;;7.99;100.00
71772;BME280;59606;52.138;5.424;2023-02-20T09:16:32;102373.34;;;7.98;100.00
71772;BME280;59606;52.138;5.424;2023-02-20T09:18:58;102369.00;;;7.99;100.00
71772;BME280;59606;52.138;5.424;2023-02-20T09:21:26;102368.16;;;7.98;100.00
71772;BME280;59606;52.138;5.424;2023-02-20T09:23:55;102379.38;;;7.97;100.00
71772;BME280;59606;52.138;5.424;2023-02-20T09:26:22;102364.72;;;7.96;100.00
71772;BME280;59606;52.138;5.424;2023-02-20T09:28:48;102369.06;;;7.96;100.00
71772;BME280;59606;52.138;5.424;2023-02-20T09:31:15;102361.25;;;7.96;100.00
71772;BME280;59606;52.138;5.424;2023-02-20T09:33:45;102357.78;;;7.97;100.00
71772;BME280;59606;52.138;5.424;2023-02-20T09:36:16;102362.91;;;8.00;100.00
71772;BME280;59606;52.138;5.424;2023-02-20T09:38:43;102352.53;;;8.00;100.00
71772;BME280;59606;52.138;5.424;2023-02-20T09:41:45;102362.00;;;8.02;100.00
71772;BME280;59606;52.138;5.424;2023-02-20T09:44:13;102356.72;;;8.07;100.00
71772;BME280;59606;52.138;5.424;2023-02-20T09:46:43;102358.34;;;8.11;100.00
71772;BME280;59606;52.138;5.424;2023-02-20T09:49:18;102353.16;;;8.13;100.00
71772;BME280;59606;52.138;5.424;2023-02-20T09:51:52;102354.84;;;8.15;100.00
71772;BME280;59606;52.138;5.424;2023-02-20T09:54:33;102363.41;;;8.17;100.00
71772;BME280;59606;52.138;5.424;2023-02-20T09:57:05;102348.69;;;8.19;100.00
71772;BME280;59606;52.138;5.424;2023-02-20T10:00:10;102354.69;;;8.21;100.00
71772;BME280;59606;52.138;5.424;2023-02-20T10:02:52;102340.78;;;8.25;100.00
71772;BME280;59606;52.138;5.424;2023-02-20T10:05:25;102352.81;;;8.28;100.00
71772;BME280;59606;52.138;5.424;2023-02-20T10:07:53;102351.06;;;8.30;100.00
71772;BME280;59606;52.138;5.424;2023-02-20T10:10:23;102363.13;;;8.33;100.00
71772;BME280;59606;52.138;5.424;2023-02-20T10:13:02;102371.75;;;8.33;100.00
71772;BME280;59606;52.138;5.424;2023-02-20T10:15:37;102371.69;;;8.36;100.00
71772;BME280;59606;52.138;5.424;2023-02-20T10:21:48;102356.03;;;8.42;100.00
71772;BME280;59606;52.138;5.424;2023-02-20T10:24:26;102368.94;;;8.45;100.00
71772;BME280;59606;52.138;5.424;2023-02-20T10:29:48;102351.56;;;8.49;99.81
71772;BME280;59606;52.138;5.424;2023-02-20T10:32:25;102371.44;;;8.50;98.99
71772;BME280;59606;52.138;5.424;2023-02-20T10:35:30;102348.06;;;8.50;99.89
71772;BME280;59606;52.138;5.424;2023-02-20T10:38:01;102342.00;;;8.49;99.92
71772;BME280;59606;52.138;5.424;2023-02-20T10:40:45;102353.31;;;8.48;99.37
71772;BME280;59606;52.138;5.424;2023-02-20T10:43:37;102361.94;;;8.49;98.90
71772;BME280;59606;52.138;5.424;2023-02-20T10:46:07;102345.41;;;8.53;99.35
71772;BME280;59606;52.138;5.424;2023-02-20T10:48:39;102333.25;;;8.55;99.46
71772;BME280;59606;52.138;5.424;2023-02-20T10:51:17;102349.69;;;8.54;99.76
71772;BME280;59606;52.138;5.424;2023-02-20T10:53:51;102351.44;;;8.55;99.14
71772;BME280;59606;52.138;5.424;2023-02-20T10:59:07;102337.44;;;8.61;98.72
71772;BME280;59606;52.138;5.424;2023-02-20T11:01:35;102345.22;;;8.61;99.13
71772;BME280;59606;52.138;5.424;2023-02-20T11:06:45;102348.66;;;8.63;98.96
71772;BME280;59606;52.138;5.424;2023-02-20T11:09:12;102342.59;;;8.62;98.66
71772;BME280;59606;52.138;5.424;2023-02-20T11:11:41;102349.50;;;8.63;98.78
71772;BME280;59606;52.138;5.424;2023-02-20T11:14:18;102360.78;;;8.62;98.57
71772;BME280;59606;52.138;5.424;2023-02-20T11:17:04;102346.84;;;8.65;98.32
71772;BME280;59606;52.138;5.424;2023-02-20T11:19:40;102319.16;;;8.65;98.12
71772;BME280;59606;52.138;5.424;2023-02-20T11:22:07;102305.34;;;8.63;97.87
71772;BME280;59606;52.138;5.424;2023-02-20T11:24:44;102315.78;;;8.62;97.64
71772;BME280;59606;52.138;5.424;2023-02-20T11:29:48;102320.03;;;8.64;98.40
71772;BME280;59606;52.138;5.424;2023-02-20T11:32:31;102304.41;;;8.66;98.09
71772;BME280;59606;52.138;5.424;2023-02-20T11:37:40;102304.38;;;8.67;97.45
71772;BME280;59606;52.138;5.424;2023-02-20T11:40:31;102314.75;;;8.69;98.16
71772;BME280;59606;52.138;5.424;2023-02-20T11:43:18;102325.94;;;8.71;97.55
71772;BME280;59606;52.138;5.424;2023-02-20T11:45:46;102346.69;;;8.72;97.42
71772;BME280;59606;52.138;5.424;2023-02-20T11:48:17;102307.81;;;8.68;97.34
71772;BME280;59606;52.138;5.424;2023-02-20T11:50:49;102311.25;;;8.68;97.67
71772;BME280;59606;52.138;5.424;2023-02-20T11:55:49;102323.34;;;8.71;97.25
71772;BME280;59606;52.138;5.424;2023-02-20T11:58:31;102347.56;;;8.73;97.47
71772;BME280;59606;52.138;5.424;2023-02-20T12:00:58;102333.66;;;8.74;98.14
71772;BME280;59606;52.138;5.424;2023-02-20T12:03:26;102348.34;;;8.75;98.04
71772;BME280;59606;52.138;5.424;2023-02-20T12:05:55;102322.47;;;8.72;97.17
71772;BME280;59606;52.138;5.424;2023-02-20T12:11:10;102334.56;;;8.73;97.72
71772;BME280;59606;52.138;5.424;2023-02-20T12:13:42;102327.66;;;8.72;97.58
71772;BME280;59606;52.138;5.424;2023-02-20T12:16:17;102327.63;;;8.73;97.62
71772;BME280;59606;52.138;5.424;2023-02-20T12:19:15;102331.03;;;8.76;97.55
71772;BME280;59606;52.138;5.424;2023-02-20T12:33:17;102303.94;;;8.86;97.07
71772;BME280;59606;52.138;5.424;2023-02-20T12:46:47;102310.69;;;8.93;97.05
71772;BME280;59606;52.138;5.424;2023-02-20T12:49:32;102302.06;;;8.92;96.74
71772;BME280;59606;52.138;5.424;2023-02-20T12:54:46;102282.81;;;9.00;96.14
71772;BME280;59606;52.138;5.424;2023-02-20T12:57:28;102294.84;;;9.04;96.50
71772;BME280;59606;52.138;5.424;2023-02-20T13:00:07;102299.06;;;9.08;96.95
71772;BME280;59606;52.138;5.424;2023-02-20T13:02:45;102287.69;;;9.12;95.97
71772;BME280;59606;52.138;5.424;2023-02-20T13:05:18;102297.22;;;9.13;95.81
71772;BME280;59606;52.138;5.424;2023-02-20T13:08:04;102278.03;;;9.17;96.50
71772;BME280;59606;52.138;5.424;2023-02-20T13:10:35;102306.50;;;9.21;95.34
71772;BME280;59606;52.138;5.424;2023-02-20T13:13:09;102296.09;;;9.23;95.91
71772;BME280;59606;52.138;5.424;2023-02-20T13:18:31;102319.44;;;9.25;95.54
71772;BME280;59606;52.138;5.424;2023-02-20T13:21:11;102302.16;;;9.22;95.10
71772;BME280;59606;52.138;5.424;2023-02-20T13:23:39;102278.81;;;9.20;95.24
71772;BME280;59606;52.138;5.424;2023-02-20T13:28:52;102266.72;;;9.18;95.46
71772;BME280;59606;52.138;5.424;2023-02-20T13:31:39;102271.06;;;9.19;95.26
71772;BME280;59606;52.138;5.424;2023-02-20T13:49:54;102259.53;;;9.29;94.74
71772;BME280;59606;52.138;5.424;2023-02-20T13:52:43;102253.34;;;9.32;94.81
71772;BME280;59606;52.138;5.424;2023-02-20T13:57:53;102263.94;;;9.26;94.25
71772;BME280;59606;52.138;5.424;2023-02-20T14:00:40;102254.47;;;9.23;94.77
71772;BME280;59606;52.138;5.424;2023-02-20T14:05:45;102253.66;;;9.21;94.71
71772;BME280;59606;52.138;5.424;2023-02-20T14:08:16;102248.44;;;9.21;95.29
71772;BME280;59606;52.138;5.424;2023-02-20T14:10:43;102249.31;;;9.21;94.99
71772;BME280;59606;52.138;5.424;2023-02-20T14:13:21;102227.63;;;9.23;95.57
71772;BME280;59606;52.138;5.424;2023-02-20T14:16:31;102225.13;;;9.18;94.81
71772;BME280;59606;52.138;5.424;2023-02-20T14:19:06;102224.28;;;9.17;94.52
71772;BME280;59606;52.138;5.424;2023-02-20T14:21:35;102206.94;;;9.18;95.00
71772;BME280;59606;52.138;5.424;2023-02-20T14:24:24;102208.69;;;9.17;95.30
71772;BME280;59606;52.138;5.424;2023-02-20T14:26:52;102222.59;;;9.16;94.62
71772;BME280;59606;52.138;5.424;2023-02-20T14:29:27;102230.47;;;9.12;94.81
71772;BME280;59606;52.138;5.424;2023-02-20T14:31:56;102225.41;;;9.09;95.39
71772;BME280;59606;52.138;5.424;2023-02-20T14:34:43;102217.63;;;9.07;94.76
71772;BME280;59606;52.138;5.424;2023-02-20T14:37:33;102228.84;;;9.09;95.69
71772;BME280;59606;52.138;5.424;2023-02-20T14:42:36;102219.38;;;9.07;94.99
71772;BME280;59606;52.138;5.424;2023-02-20T14:45:07;102225.50;;;9.04;94.92
71772;BME280;59606;52.138;5.424;2023-02-20T14:47:51;102223.75;;;9.05;95.24
71772;BME280;59606;52.138;5.424;2023-02-20T14:50:24;102233.28;;;9.06;95.33
71772;BME280;59606;52.138;5.424;2023-02-20T14:53:18;102222.97;;;9.01;95.62
71772;BME280;59606;52.138;5.424;2023-02-20T14:55:48;102229.94;;;9.01;94.85